sensor_id;sensor_type;location;lat;lon;timestamp;temperature;humidity
3300;DHT22;1662;49.310;8.134;2023-02-11T00:00:15;3.80;99.90
3300;DHT22;1662;49.310;8.134;2023-02-11T00:02:43;3.80;99.90
3300;DHT22;1662;49.310;8.134;2023-02-11T00:05:09;3.80;99.90
3300;DHT22;1662;49.310;8.134;2023-02-11T00:07:35;3.80;99.90
3300;DHT22;1662;49.310;8.134;2023-02-11T00:10:01;3.80;99.90
3300;DHT22;1662;49.310;8.134;2023-02-11T00:12:27;3.80;99.90
3300;DHT22;1662;49.310;8.134;2023-02-11T00:14:53;3.90;99.90
3300;DHT22;1662;49.310;8.134;2023-02-11T00:17:19;3.90;99.90
3300;DHT22;1662;49.310;8.134;2023-02-11T00:19:49;3.90;99.90
3300;DHT22;1662;49.310;8.134;2023-02-11T00:22:17;3.90;99.90
3300;DHT22;1662;49.310;8.134;2023-02-11T00:24:43;3.80;99.90
3300;DHT22;1662;49.310;8.134;2023-02-11T00:27:08;3.80;99.90
3300;DHT22;1662;49.310;8.134;2023-02-11T00:29:35;3.80;99.90
3300;DHT22;1662;49.310;8.134;2023-02-11T00:32:00;3.80;99.90
3300;DHT22;1662;49.310;8.134;2023-02-11T00:34:30;3.90;99.90
3300;DHT22;1662;49.310;8.134;2023-02-11T00:36:56;3.80;99.90
3300;DHT22;1662;49.310;8.134;2023-02-11T00:39:21;3.80;99.90
3300;DHT22;1662;49.310;8.134;2023-02-11T00:41:47;3.90;99.90
3300;DHT22;1662;49.310;8.134;2023-02-11T00:44:13;4.00;99.90
3300;DHT22;1662;49.310;8.134;2023-02-11T00:46:38;4.00;99.90
3300;DHT22;1662;49.310;8.134;2023-02-11T00:49:04;3.90;99.90
3300;DHT22;1662;49.310;8.134;2023-02-11T00:51:29;4.00;99.90
3300;DHT22;1662;49.310;8.134;2023-02-11T00:53:55;3.90;99.90
3300;DHT22;1662;49.310;8.134;2023-02-11T00:56:21;3.80;99.90
3300;DHT22;1662;49.310;8.134;2023-02-11T00:58:46;3.90;99.90
3300;DHT22;1662;49.310;8.134;2023-02-11T01:01:12;3.80;99.90
3300;DHT22;1662;49.310;8.134;2023-02-11T01:03:38;3.90;99.90
3300;DHT22;1662;49.310;8.134;2023-02-11T01:06:06;3.80;99.90
3300;DHT22;1662;49.310;8.134;2023-02-11T01:08:31;3.90;99.90
3300;DHT22;1662;49.310;8.134;2023-02-11T01:11:06;3.80;99.90
3300;DHT22;1662;49.310;8.134;2023-02-11T01:13:34;3.70;99.90
3300;DHT22;1662;49.310;8.134;2023-02-11T01:16:02;3.70;99.90
3300;DHT22;1662;49.310;8.134;2023-02-11T01:18:28;3.70;99.90
3300;DHT22;1662;49.310;8.134;2023-02-11T01:20:54;3.60;99.90
3300;DHT22;1662;49.310;8.134;2023-02-11T01:23:20;3.60;99.90
3300;DHT22;1662;49.310;8.134;2023-02-11T01:25:46;3.60;99.90
3300;DHT22;1662;49.310;8.134;2023-02-11T01:28:23;3.70;99.90
3300;DHT22;1662;49.310;8.134;2023-02-11T01:30:49;3.60;99.90
3300;DHT22;1662;49.310;8.134;2023-02-11T01:33:17;3.60;99.90
3300;DHT22;1662;49.310;8.134;2023-02-11T01:35:44;3.50;99.90
3300;DHT22;1662;49.310;8.134;2023-02-11T01:38:18;3.50;99.90
3300;DHT22;1662;49.310;8.134;2023-02-11T01:40:53;3.50;99.90
3300;DHT22;1662;49.310;8.134;2023-02-11T01:43:20;3.50;99.90
3300;DHT22;1662;49.310;8.134;2023-02-11T01:48:25;3.50;99.90
3300;DHT22;1662;49.310;8.134;2023-02-11T01:50:56;3.50;99.90
3300;DHT22;1662;49.310;8.134;2023-02-11T01:53:24;3.50;99.90
3300;DHT22;1662;49.310;8.134;2023-02-11T01:56:09;3.50;99.90
3300;DHT22;1662;49.310;8.134;2023-02-11T01:59:00;3.50;99.90
3300;DHT22;1662;49.310;8.134;2023-02-11T02:01:28;3.60;99.90
3300;DHT22;1662;49.310;8.134;2023-02-11T02:03:58;3.50;99.90
3300;DHT22;1662;49.310;8.134;2023-02-11T02:06:34;3.40;99.90
3300;DHT22;1662;49.310;8.134;2023-02-11T02:09:21;3.40;99.90
3300;DHT22;1662;49.310;8.134;2023-02-11T02:11:49;3.40;99.90
3300;DHT22;1662;49.310;8.134;2023-02-11T02:14:14;3.40;99.90
3300;DHT22;1662;49.310;8.134;2023-02-11T02:16:40;3.40;99.90
3300;DHT22;1662;49.310;8.134;2023-02-11T02:24:57;3.60;99.90
3300;DHT22;1662;49.310;8.134;2023-02-11T02:27:33;3.60;99.90
3300;DHT22;1662;49.310;8.134;2023-02-11T02:32:42;3.60;99.90
3300;DHT22;1662;49.310;8.134;2023-02-11T02:35:31;3.60;99.90
3300;DHT22;1662;49.310;8.134;2023-02-11T02:38:12;3.50;99.90
3300;DHT22;1662;49.310;8.134;2023-02-11T02:40:52;3.50;99.90
3300;DHT22;1662;49.310;8.134;2023-02-11T02:43:20;3.50;99.90
3300;DHT22;1662;49.310;8.134;2023-02-11T02:45:47;3.40;99.90
3300;DHT22;1662;49.310;8.134;2023-02-11T02:48:25;3.20;99.90
3300;DHT22;1662;49.310;8.134;2023-02-11T03:07:58;3.50;99.90
3300;DHT22;1662;49.310;8.134;2023-02-11T03:10:34;3.50;99.90
3300;DHT22;1662;49.310;8.134;2023-02-11T03:13:02;3.50;99.90
3300;DHT22;1662;49.310;8.134;2023-02-11T03:15:32;3.50;99.90
3300;DHT22;1662;49.310;8.134;2023-02-11T03:17:59;3.40;99.90
3300;DHT22;1662;49.310;8.134;2023-02-11T03:20:27;3.40;99.90
3300;DHT22;1662;49.310;8.134;2023-02-11T03:22:59;3.40;99.90
3300;DHT22;1662;49.310;8.134;2023-02-11T03:25:29;3.40;99.90
3300;DHT22;1662;49.310;8.134;2023-02-11T03:28:28;3.40;99.90
3300;DHT22;1662;49.310;8.134;2023-02-11T03:31:12;3.40;99.90
3300;DHT22;1662;49.310;8.134;2023-02-11T03:36:59;3.40;99.90
3300;DHT22;1662;49.310;8.134;2023-02-11T03:39:34;3.50;99.90
3300;DHT22;1662;49.310;8.134;2023-02-11T03:42:02;3.50;99.90
3300;DHT22;1662;49.310;8.134;2023-02-11T03:44:33;3.50;99.90
3300;DHT22;1662;49.310;8.134;2023-02-11T03:47:02;3.50;99.90
3300;DHT22;1662;49.310;8.134;2023-02-11T03:49:31;3.50;99.90
3300;DHT22;1662;49.310;8.134;2023-02-11T03:51:59;3.50;99.90
3300;DHT22;1662;49.310;8.134;2023-02-11T03:54:29;3.60;99.90
3300;DHT22;1662;49.310;8.134;2023-02-11T03:56:57;3.60;99.90
3300;DHT22;1662;49.310;8.134;2023-02-11T03:59:23;3.60;99.90
3300;DHT22;1662;49.310;8.134;2023-02-11T04:01:49;3.60;99.90
3300;DHT22;1662;49.310;8.134;2023-02-11T04:04:16;3.60;99.90
3300;DHT22;1662;49.310;8.134;2023-02-11T04:06:41;3.70;99.90
3300;DHT22;1662;49.310;8.134;2023-02-11T04:09:08;3.70;99.90
3300;DHT22;1662;49.310;8.134;2023-02-11T04:11:34;3.90;99.90
3300;DHT22;1662;49.310;8.134;2023-02-11T04:14:02;4.00;99.90
3300;DHT22;1662;49.310;8.134;2023-02-11T04:16:28;4.10;99.90
3300;DHT22;1662;49.310;8.134;2023-02-11T04:18:55;4.10;99.90
3300;DHT22;1662;49.310;8.134;2023-02-11T04:21:21;4.10;99.90
3300;DHT22;1662;49.310;8.134;2023-02-11T04:23:46;4.10;99.90
3300;DHT22;1662;49.310;8.134;2023-02-11T04:26:12;4.20;99.90
3300;DHT22;1662;49.310;8.134;2023-02-11T04:28:37;4.20;99.90
3300;DHT22;1662;49.310;8.134;2023-02-11T04:31:03;4.20;99.90
3300;DHT22;1662;49.310;8.134;2023-02-11T04:33:29;4.20;99.90
3300;DHT22;1662;49.310;8.134;2023-02-11T04:35:54;4.20;99.90
3300;DHT22;1662;49.310;8.134;2023-02-11T04:38:22;4.20;99.90
3300;DHT22;1662;49.310;8.134;2023-02-11T04:40:50;4.20;99.90
3300;DHT22;1662;49.310;8.134;2023-02-11T04:43:16;4.20;99.90
3300;DHT22;1662;49.310;8.134;2023-02-11T04:45:41;4.10;99.90
3300;DHT22;1662;49.310;8.134;2023-02-11T04:48:07;4.20;99.90
3300;DHT22;1662;49.310;8.134;2023-02-11T04:50:32;4.10;99.90
3300;DHT22;1662;49.310;8.134;2023-02-11T04:52:58;4.00;99.90
3300;DHT22;1662;49.310;8.134;2023-02-11T04:55:24;4.00;99.90
3300;DHT22;1662;49.310;8.134;2023-02-11T04:57:49;4.10;99.90
3300;DHT22;1662;49.310;8.134;2023-02-11T05:00:17;4.10;99.90
3300;DHT22;1662;49.310;8.134;2023-02-11T05:02:47;4.20;99.90
3300;DHT22;1662;49.310;8.134;2023-02-11T05:05:15;4.20;99.90
3300;DHT22;1662;49.310;8.134;2023-02-11T05:07:41;4.20;99.90
3300;DHT22;1662;49.310;8.134;2023-02-11T05:10:06;4.20;99.90
3300;DHT22;1662;49.310;8.134;2023-02-11T05:12:32;4.30;99.90
3300;DHT22;1662;49.310;8.134;2023-02-11T05:14:58;4.30;99.90
3300;DHT22;1662;49.310;8.134;2023-02-11T05:17:23;4.20;99.90
3300;DHT22;1662;49.310;8.134;2023-02-11T05:19:49;4.20;99.90
3300;DHT22;1662;49.310;8.134;2023-02-11T05:22:17;4.20;99.90
3300;DHT22;1662;49.310;8.134;2023-02-11T05:24:43;4.20;99.90
3300;DHT22;1662;49.310;8.134;2023-02-11T05:27:08;4.30;99.90
3300;DHT22;1662;49.310;8.134;2023-02-11T05:29:34;4.30;99.90
3300;DHT22;1662;49.310;8.134;2023-02-11T05:32:00;4.30;99.90
3300;DHT22;1662;49.310;8.134;2023-02-11T05:34:25;4.20;99.90
3300;DHT22;1662;49.310;8.134;2023-02-11T05:36:51;4.20;99.90
3300;DHT22;1662;49.310;8.134;2023-02-11T05:39:16;4.20;99.90
3300;DHT22;1662;49.310;8.134;2023-02-11T05:41:42;4.20;99.90
3300;DHT22;1662;49.310;8.134;2023-02-11T05:44:08;4.20;99.90
3300;DHT22;1662;49.310;8.134;2023-02-11T05:46:33;4.20;99.90
3300;DHT22;1662;49.310;8.134;2023-02-11T05:48:59;4.20;99.90
3300;DHT22;1662;49.310;8.134;2023-02-11T05:51:24;4.10;99.90
3300;DHT22;1662;49.310;8.134;2023-02-11T05:53:51;4.10;99.90
3300;DHT22;1662;49.310;8.134;2023-02-11T05:56:17;4.20;99.90
3300;DHT22;1662;49.310;8.134;2023-02-11T05:58:43;4.20;99.90
3300;DHT22;1662;49.310;8.134;2023-02-11T06:01:08;4.20;99.90
3300;DHT22;1662;49.310;8.134;2023-02-11T06:03:34;4.20;99.90
3300;DHT22;1662;49.310;8.134;2023-02-11T06:06:00;4.20;99.90
3300;DHT22;1662;49.310;8.134;2023-02-11T06:08:25;4.20;99.90
3300;DHT22;1662;49.310;8.134;2023-02-11T06:10:51;4.20;99.90
3300;DHT22;1662;49.310;8.134;2023-02-11T06:13:16;4.10;99.90
3300;DHT22;1662;49.310;8.134;2023-02-11T06:15:44;4.10;99.90
3300;DHT22;1662;49.310;8.134;2023-02-11T06:18:09;4.10;99.90
3300;DHT22;1662;49.310;8.134;2023-02-11T06:20:38;4.10;99.90
3300;DHT22;1662;49.310;8.134;2023-02-11T06:23:08;4.20;99.90
3300;DHT22;1662;49.310;8.134;2023-02-11T06:25:33;4.20;99.90
3300;DHT22;1662;49.310;8.134;2023-02-11T06:27:59;4.30;99.90
3300;DHT22;1662;49.310;8.134;2023-02-11T06:30:24;4.30;99.90
3300;DHT22;1662;49.310;8.134;2023-02-11T06:32:50;4.30;99.90
3300;DHT22;1662;49.310;8.134;2023-02-11T06:35:16;4.40;99.90
3300;DHT22;1662;49.310;8.134;2023-02-11T06:37:41;4.40;99.90
3300;DHT22;1662;49.310;8.134;2023-02-11T06:40:08;4.40;99.90
3300;DHT22;1662;49.310;8.134;2023-02-11T06:42:34;4.30;99.90
3300;DHT22;1662;49.310;8.134;2023-02-11T06:45:00;4.30;99.90
3300;DHT22;1662;49.310;8.134;2023-02-11T06:47:26;4.30;99.90
3300;DHT22;1662;49.310;8.134;2023-02-11T06:49:52;4.30;99.90
3300;DHT22;1662;49.310;8.134;2023-02-11T06:52:18;4.30;99.90
3300;DHT22;1662;49.310;8.134;2023-02-11T06:54:43;4.30;99.90
3300;DHT22;1662;49.310;8.134;2023-02-11T06:57:09;4.30;99.90
3300;DHT22;1662;49.310;8.134;2023-02-11T06:59:34;4.30;99.90
3300;DHT22;1662;49.310;8.134;2023-02-11T07:02:00;4.30;99.90
3300;DHT22;1662;49.310;8.134;2023-02-11T07:04:25;4.40;99.90
3300;DHT22;1662;49.310;8.134;2023-02-11T07:06:51;4.40;99.90
3300;DHT22;1662;49.310;8.134;2023-02-11T07:09:17;4.40;99.90
3300;DHT22;1662;49.310;8.134;2023-02-11T07:11:44;4.40;99.90
3300;DHT22;1662;49.310;8.134;2023-02-11T07:14:13;4.40;99.90
3300;DHT22;1662;49.310;8.134;2023-02-11T07:16:41;4.30;99.90
3300;DHT22;1662;49.310;8.134;2023-02-11T07:19:07;4.30;99.90
3300;DHT22;1662;49.310;8.134;2023-02-11T07:21:32;4.30;99.90
3300;DHT22;1662;49.310;8.134;2023-02-11T07:24:00;4.30;99.90
3300;DHT22;1662;49.310;8.134;2023-02-11T07:26:26;4.30;99.90
3300;DHT22;1662;49.310;8.134;2023-02-11T07:28:53;4.40;99.90
3300;DHT22;1662;49.310;8.134;2023-02-11T07:31:24;4.40;99.90
3300;DHT22;1662;49.310;8.134;2023-02-11T07:33:52;4.40;99.90
3300;DHT22;1662;49.310;8.134;2023-02-11T07:36:18;4.40;99.90
3300;DHT22;1662;49.310;8.134;2023-02-11T07:38:44;4.50;99.90
3300;DHT22;1662;49.310;8.134;2023-02-11T07:41:12;4.60;99.90
3300;DHT22;1662;49.310;8.134;2023-02-11T07:43:41;4.60;99.90
3300;DHT22;1662;49.310;8.134;2023-02-11T07:46:14;4.70;99.90
3300;DHT22;1662;49.310;8.134;2023-02-11T07:48:40;4.70;99.90
3300;DHT22;1662;49.310;8.134;2023-02-11T07:51:15;4.70;99.90
3300;DHT22;1662;49.310;8.134;2023-02-11T07:53:41;4.70;99.90
3300;DHT22;1662;49.310;8.134;2023-02-11T07:56:08;4.70;99.90
3300;DHT22;1662;49.310;8.134;2023-02-11T07:58:34;4.80;99.90
3300;DHT22;1662;49.310;8.134;2023-02-11T08:01:04;4.90;99.90
3300;DHT22;1662;49.310;8.134;2023-02-11T08:03:30;4.90;99.90
3300;DHT22;1662;49.310;8.134;2023-02-11T08:05:56;5.00;99.90
3300;DHT22;1662;49.310;8.134;2023-02-11T08:08:22;5.00;99.90
3300;DHT22;1662;49.310;8.134;2023-02-11T08:10:49;5.10;99.90
3300;DHT22;1662;49.310;8.134;2023-02-11T08:13:15;5.10;99.90
3300;DHT22;1662;49.310;8.134;2023-02-11T08:15:41;5.20;99.90
3300;DHT22;1662;49.310;8.134;2023-02-11T08:18:06;5.20;99.90
3300;DHT22;1662;49.310;8.134;2023-02-11T08:20:33;5.30;99.90
3300;DHT22;1662;49.310;8.134;2023-02-11T08:23:00;5.30;99.90
3300;DHT22;1662;49.310;8.134;2023-02-11T08:25:27;5.40;99.90
3300;DHT22;1662;49.310;8.134;2023-02-11T08:27:52;5.40;99.90
3300;DHT22;1662;49.310;8.134;2023-02-11T08:30:18;5.50;99.90
3300;DHT22;1662;49.310;8.134;2023-02-11T08:32:46;5.50;99.90
3300;DHT22;1662;49.310;8.134;2023-02-11T08:35:12;5.50;99.90
3300;DHT22;1662;49.310;8.134;2023-02-11T08:37:40;5.60;99.90
3300;DHT22;1662;49.310;8.134;2023-02-11T08:40:06;5.60;99.90
3300;DHT22;1662;49.310;8.134;2023-02-11T08:42:31;5.70;99.90
3300;DHT22;1662;49.310;8.134;2023-02-11T08:44:57;5.80;99.90
3300;DHT22;1662;49.310;8.134;2023-02-11T08:47:23;5.90;99.90
3300;DHT22;1662;49.310;8.134;2023-02-11T08:49:48;6.00;99.90
3300;DHT22;1662;49.310;8.134;2023-02-11T08:52:14;6.20;99.90
3300;DHT22;1662;49.310;8.134;2023-02-11T08:54:42;6.30;99.90
3300;DHT22;1662;49.310;8.134;2023-02-11T08:57:09;6.30;99.90
3300;DHT22;1662;49.310;8.134;2023-02-11T08:59:35;6.40;99.90
3300;DHT22;1662;49.310;8.134;2023-02-11T09:02:01;6.40;99.90
3300;DHT22;1662;49.310;8.134;2023-02-11T09:04:26;6.40;99.90
3300;DHT22;1662;49.310;8.134;2023-02-11T09:06:52;6.60;99.90
3300;DHT22;1662;49.310;8.134;2023-02-11T09:09:20;6.60;99.90
3300;DHT22;1662;49.310;8.134;2023-02-11T09:11:46;6.60;99.90
3300;DHT22;1662;49.310;8.134;2023-02-11T09:14:21;6.50;99.90
3300;DHT22;1662;49.310;8.134;2023-02-11T09:16:46;6.50;99.90
3300;DHT22;1662;49.310;8.134;2023-02-11T09:19:14;6.50;99.90
3300;DHT22;1662;49.310;8.134;2023-02-11T09:21:40;6.50;99.90
3300;DHT22;1662;49.310;8.134;2023-02-11T09:24:06;6.60;99.90
3300;DHT22;1662;49.310;8.134;2023-02-11T09:26:35;6.60;99.90
3300;DHT22;1662;49.310;8.134;2023-02-11T09:29:04;6.70;99.90
3300;DHT22;1662;49.310;8.134;2023-02-11T09:31:31;6.80;99.90
3300;DHT22;1662;49.310;8.134;2023-02-11T09:33:59;6.90;99.90
3300;DHT22;1662;49.310;8.134;2023-02-11T09:36:29;6.90;99.90
3300;DHT22;1662;49.310;8.134;2023-02-11T09:38:57;7.10;99.90
3300;DHT22;1662;49.310;8.134;2023-02-11T09:41:40;7.20;99.90
3300;DHT22;1662;49.310;8.134;2023-02-11T09:44:15;7.30;99.90
3300;DHT22;1662;49.310;8.134;2023-02-11T09:46:54;7.40;99.90
3300;DHT22;1662;49.310;8.134;2023-02-11T09:49:30;7.40;99.90
3300;DHT22;1662;49.310;8.134;2023-02-11T09:52:07;7.40;99.90
3300;DHT22;1662;49.310;8.134;2023-02-11T09:55:01;7.50;99.90
3300;DHT22;1662;49.310;8.134;2023-02-11T09:57:29;7.50;99.90
3300;DHT22;1662;49.310;8.134;2023-02-11T09:59:56;7.50;99.90
3300;DHT22;1662;49.310;8.134;2023-02-11T10:02:27;7.70;99.90
3300;DHT22;1662;49.310;8.134;2023-02-11T10:05:20;7.80;99.90
3300;DHT22;1662;49.310;8.134;2023-02-11T10:08:05;7.80;99.90
3300;DHT22;1662;49.310;8.134;2023-02-11T10:16:35;8.40;99.90
3300;DHT22;1662;49.310;8.134;2023-02-11T10:22:21;8.50;99.90
3300;DHT22;1662;49.310;8.134;2023-02-11T10:24:55;8.60;99.90
3300;DHT22;1662;49.310;8.134;2023-02-11T10:27:31;8.60;99.90
3300;DHT22;1662;49.310;8.134;2023-02-11T10:30:18;8.50;99.90
3300;DHT22;1662;49.310;8.134;2023-02-11T10:33:35;8.50;99.90
3300;DHT22;1662;49.310;8.134;2023-02-11T10:35:32;8.50;99.90
3300;DHT22;1662;49.310;8.134;2023-02-11T10:37:58;8.40;99.90
3300;DHT22;1662;49.310;8.134;2023-02-11T10:40:26;8.40;99.90
3300;DHT22;1662;49.310;8.134;2023-02-11T10:42:55;8.40;99.90
3300;DHT22;1662;49.310;8.134;2023-02-11T10:47:54;8.40;99.90
3300;DHT22;1662;49.310;8.134;2023-02-11T10:50:29;8.50;99.90
3300;DHT22;1662;49.310;8.134;2023-02-11T10:53:19;8.60;99.90
3300;DHT22;1662;49.310;8.134;2023-02-11T10:55:53;8.60;99.90
3300;DHT22;1662;49.310;8.134;2023-02-11T10:58:30;8.70;99.90
3300;DHT22;1662;49.310;8.134;2023-02-11T11:00:58;8.80;99.90
3300;DHT22;1662;49.310;8.134;2023-02-11T11:03:36;9.00;99.90
3300;DHT22;1662;49.310;8.134;2023-02-11T11:06:07;9.10;99.90
3300;DHT22;1662;49.310;8.134;2023-02-11T11:08:51;9.30;99.90
3300;DHT22;1662;49.310;8.134;2023-02-11T11:11:22;9.40;99.90
3300;DHT22;1662;49.310;8.134;2023-02-11T11:16:27;9.50;99.90
3300;DHT22;1662;49.310;8.134;2023-02-11T11:21:43;9.70;99.90
3300;DHT22;1662;49.310;8.134;2023-02-11T11:24:39;9.80;99.90
3300;DHT22;1662;49.310;8.134;2023-02-11T11:27:05;9.90;99.90
3300;DHT22;1662;49.310;8.134;2023-02-11T11:29:51;10.00;99.90
3300;DHT22;1662;49.310;8.134;2023-02-11T11:32:31;10.20;99.90
3300;DHT22;1662;49.310;8.134;2023-02-11T11:35:03;10.40;99.90
3300;DHT22;1662;49.310;8.134;2023-02-11T11:37:32;10.50;99.90
3300;DHT22;1662;49.310;8.134;2023-02-11T11:40:08;10.50;99.90
3300;DHT22;1662;49.310;8.134;2023-02-11T11:42:36;10.70;99.90
3300;DHT22;1662;49.310;8.134;2023-02-11T11:48:09;10.80;99.90
3300;DHT22;1662;49.310;8.134;2023-02-11T11:50:41;10.60;99.90
3300;DHT22;1662;49.310;8.134;2023-02-11T11:56:13;10.30;99.90
3300;DHT22;1662;49.310;8.134;2023-02-11T11:58:39;10.20;99.90
3300;DHT22;1662;49.310;8.134;2023-02-11T12:06:56;10.10;99.90
3300;DHT22;1662;49.310;8.134;2023-02-11T12:09:39;10.10;99.90
3300;DHT22;1662;49.310;8.134;2023-02-11T12:17:28;10.10;99.90
3300;DHT22;1662;49.310;8.134;2023-02-11T12:20:23;10.30;99.90
3300;DHT22;1662;49.310;8.134;2023-02-11T12:25:55;10.30;99.90
3300;DHT22;1662;49.310;8.134;2023-02-11T12:39:50;10.20;99.90
3300;DHT22;1662;49.310;8.134;2023-02-11T12:56:37;10.50;99.90
3300;DHT22;1662;49.310;8.134;2023-02-11T12:59:11;10.60;99.90
3300;DHT22;1662;49.310;8.134;2023-02-11T13:01:42;10.60;99.90
3300;DHT22;1662;49.310;8.134;2023-02-11T13:04:14;10.60;99.90
3300;DHT22;1662;49.310;8.134;2023-02-11T13:06:57;10.50;99.90
3300;DHT22;1662;49.310;8.134;2023-02-11T13:09:35;10.40;99.90
3300;DHT22;1662;49.310;8.134;2023-02-11T13:12:04;10.30;99.90
3300;DHT22;1662;49.310;8.134;2023-02-11T13:14:51;10.30;99.90
3300;DHT22;1662;49.310;8.134;2023-02-11T13:17:24;10.30;99.90
3300;DHT22;1662;49.310;8.134;2023-02-11T13:22:48;9.90;99.90
3300;DHT22;1662;49.310;8.134;2023-02-11T13:25:39;9.80;99.90
3300;DHT22;1662;49.310;8.134;2023-02-11T13:28:31;9.80;99.90
3300;DHT22;1662;49.310;8.134;2023-02-11T13:31:01;9.70;99.90
3300;DHT22;1662;49.310;8.134;2023-02-11T13:33:38;9.70;99.90
3300;DHT22;1662;49.310;8.134;2023-02-11T13:38:33;9.80;99.90
3300;DHT22;1662;49.310;8.134;2023-02-11T13:43:39;9.80;99.90
3300;DHT22;1662;49.310;8.134;2023-02-11T13:46:08;9.80;99.90
3300;DHT22;1662;49.310;8.134;2023-02-11T13:48:46;9.80;99.90
3300;DHT22;1662;49.310;8.134;2023-02-11T13:51:15;9.90;99.90
3300;DHT22;1662;49.310;8.134;2023-02-11T13:56:28;9.90;99.90
3300;DHT22;1662;49.310;8.134;2023-02-11T13:58:58;9.90;99.90
3300;DHT22;1662;49.310;8.134;2023-02-11T14:04:23;9.90;99.90
3300;DHT22;1662;49.310;8.134;2023-02-11T14:07:30;9.90;99.90
3300;DHT22;1662;49.310;8.134;2023-02-11T14:13:32;9.90;99.90
3300;DHT22;1662;49.310;8.134;2023-02-11T14:21:33;9.80;99.90
3300;DHT22;1662;49.310;8.134;2023-02-11T14:29:58;9.90;99.90
3300;DHT22;1662;49.310;8.134;2023-02-11T14:40:30;10.10;99.90
3300;DHT22;1662;49.310;8.134;2023-02-11T14:43:09;10.00;99.90
3300;DHT22;1662;49.310;8.134;2023-02-11T14:45:36;9.90;99.90
3300;DHT22;1662;49.310;8.134;2023-02-11T14:48:14;9.80;99.90
3300;DHT22;1662;49.310;8.134;2023-02-11T14:53:15;9.80;99.90
3300;DHT22;1662;49.310;8.134;2023-02-11T14:55:47;9.80;99.90
3300;DHT22;1662;49.310;8.134;2023-02-11T14:58:31;9.70;99.90
3300;DHT22;1662;49.310;8.134;2023-02-11T15:01:21;9.60;99.90
3300;DHT22;1662;49.310;8.134;2023-02-11T15:03:48;9.50;99.90
3300;DHT22;1662;49.310;8.134;2023-02-11T15:06:23;9.40;99.90
3300;DHT22;1662;49.310;8.134;2023-02-11T15:09:03;9.40;99.90
3300;DHT22;1662;49.310;8.134;2023-02-11T15:11:32;9.30;99.90
3300;DHT22;1662;49.310;8.134;2023-02-11T15:14:09;9.30;99.90
3300;DHT22;1662;49.310;8.134;2023-02-11T15:16:40;9.20;99.90
3300;DHT22;1662;49.310;8.134;2023-02-11T15:19:18;9.20;99.90
3300;DHT22;1662;49.310;8.134;2023-02-11T15:21:45;9.10;99.90
3300;DHT22;1662;49.310;8.134;2023-02-11T15:24:33;9.10;99.90
3300;DHT22;1662;49.310;8.134;2023-02-11T15:29:47;9.20;99.90
3300;DHT22;1662;49.310;8.134;2023-02-11T15:32:19;9.10;99.90
3300;DHT22;1662;49.310;8.134;2023-02-11T15:34:47;9.00;99.90
3300;DHT22;1662;49.310;8.134;2023-02-11T15:37:20;9.00;99.90
3300;DHT22;1662;49.310;8.134;2023-02-11T15:39:46;9.00;99.90
3300;DHT22;1662;49.310;8.134;2023-02-11T15:42:23;8.90;99.90
3300;DHT22;1662;49.310;8.134;2023-02-11T15:47:49;8.80;99.90
3300;DHT22;1662;49.310;8.134;2023-02-11T15:50:30;8.70;99.90
3300;DHT22;1662;49.310;8.134;2023-02-11T15:52:59;8.70;99.90
3300;DHT22;1662;49.310;8.134;2023-02-11T15:55:26;8.70;99.90
3300;DHT22;1662;49.310;8.134;2023-02-11T15:57:58;8.70;99.90
3300;DHT22;1662;49.310;8.134;2023-02-11T16:00:31;8.70;99.90
3300;DHT22;1662;49.310;8.134;2023-02-11T16:02:58;8.70;99.90
3300;DHT22;1662;49.310;8.134;2023-02-11T16:05:32;8.60;99.90
3300;DHT22;1662;49.310;8.134;2023-02-11T16:08:00;8.70;99.90
3300;DHT22;1662;49.310;8.134;2023-02-11T16:10:30;8.60;99.90
3300;DHT22;1662;49.310;8.134;2023-02-11T16:18:00;8.40;99.90
3300;DHT22;1662;49.310;8.134;2023-02-11T16:20:26;8.40;99.90
3300;DHT22;1662;49.310;8.134;2023-02-11T16:22:53;8.40;99.90
3300;DHT22;1662;49.310;8.134;2023-02-11T16:25:20;8.40;99.90
3300;DHT22;1662;49.310;8.134;2023-02-11T16:27:52;8.30;99.90
3300;DHT22;1662;49.310;8.134;2023-02-11T16:30:33;8.30;99.90
3300;DHT22;1662;49.310;8.134;2023-02-11T16:33:02;8.30;99.90
3300;DHT22;1662;49.310;8.134;2023-02-11T16:35:29;8.20;99.90
3300;DHT22;1662;49.310;8.134;2023-02-11T16:37:57;8.10;99.90
3300;DHT22;1662;49.310;8.134;2023-02-11T16:40:22;8.20;99.90
3300;DHT22;1662;49.310;8.134;2023-02-11T16:42:48;8.20;99.90
3300;DHT22;1662;49.310;8.134;2023-02-11T16:45:15;8.20;99.90
3300;DHT22;1662;49.310;8.134;2023-02-11T16:47:41;8.20;99.90
3300;DHT22;1662;49.310;8.134;2023-02-11T16:50:19;8.20;99.90
3300;DHT22;1662;49.310;8.134;2023-02-11T16:52:48;8.10;99.90
3300;DHT22;1662;49.310;8.134;2023-02-11T16:55:14;8.20;99.90
3300;DHT22;1662;49.310;8.134;2023-02-11T16:57:40;8.20;99.90
3300;DHT22;1662;49.310;8.134;2023-02-11T17:00:07;8.20;99.90
3300;DHT22;1662;49.310;8.134;2023-02-11T17:02:33;8.20;99.90
3300;DHT22;1662;49.310;8.134;2023-02-11T17:05:01;8.20;99.90
3300;DHT22;1662;49.310;8.134;2023-02-11T17:07:28;8.20;99.90
3300;DHT22;1662;49.310;8.134;2023-02-11T17:09:54;8.20;99.90
3300;DHT22;1662;49.310;8.134;2023-02-11T17:12:20;8.20;99.90
3300;DHT22;1662;49.310;8.134;2023-02-11T17:14:46;8.20;99.90
3300;DHT22;1662;49.310;8.134;2023-02-11T17:17:12;8.20;99.90
3300;DHT22;1662;49.310;8.134;2023-02-11T17:19:38;8.20;99.90
3300;DHT22;1662;49.310;8.134;2023-02-11T17:22:04;8.30;99.90
3300;DHT22;1662;49.310;8.134;2023-02-11T17:24:30;8.30;99.90
3300;DHT22;1662;49.310;8.134;2023-02-11T17:26:55;8.20;99.90
3300;DHT22;1662;49.310;8.134;2023-02-11T17:29:24;8.30;99.90
3300;DHT22;1662;49.310;8.134;2023-02-11T17:31:50;8.30;99.90
3300;DHT22;1662;49.310;8.134;2023-02-11T17:34:17;8.30;99.90
3300;DHT22;1662;49.310;8.134;2023-02-11T17:36:43;8.20;99.90
3300;DHT22;1662;49.310;8.134;2023-02-11T17:39:09;8.20;99.90
3300;DHT22;1662;49.310;8.134;2023-02-11T17:41:39;8.20;99.90
3300;DHT22;1662;49.310;8.134;2023-02-11T17:44:06;8.20;99.90
3300;DHT22;1662;49.310;8.134;2023-02-11T17:46:33;8.20;99.90
3300;DHT22;1662;49.310;8.134;2023-02-11T17:49:03;8.20;99.90
3300;DHT22;1662;49.310;8.134;2023-02-11T17:51:31;8.20;99.90
3300;DHT22;1662;49.310;8.134;2023-02-11T17:53:59;8.20;99.90
3300;DHT22;1662;49.310;8.134;2023-02-11T17:56:25;8.20;99.90
3300;DHT22;1662;49.310;8.134;2023-02-11T17:58:53;8.20;99.90
3300;DHT22;1662;49.310;8.134;2023-02-11T18:01:19;8.20;99.90
3300;DHT22;1662;49.310;8.134;2023-02-11T18:03:44;8.20;99.90
3300;DHT22;1662;49.310;8.134;2023-02-11T18:06:10;8.10;99.90
3300;DHT22;1662;49.310;8.134;2023-02-11T18:08:36;8.10;99.90
3300;DHT22;1662;49.310;8.134;2023-02-11T18:11:02;8.10;99.90
3300;DHT22;1662;49.310;8.134;2023-02-11T18:13:28;8.10;99.90
3300;DHT22;1662;49.310;8.134;2023-02-11T18:15:54;8.10;99.90
3300;DHT22;1662;49.310;8.134;2023-02-11T18:18:20;8.10;99.90
3300;DHT22;1662;49.310;8.134;2023-02-11T18:20:55;8.10;99.90
3300;DHT22;1662;49.310;8.134;2023-02-11T18:23:21;8.10;99.90
3300;DHT22;1662;49.310;8.134;2023-02-11T18:25:46;8.10;99.90
3300;DHT22;1662;49.310;8.134;2023-02-11T18:28:12;8.10;99.90
3300;DHT22;1662;49.310;8.134;2023-02-11T18:30:40;8.10;99.90
3300;DHT22;1662;49.310;8.134;2023-02-11T18:33:05;8.10;99.90
3300;DHT22;1662;49.310;8.134;2023-02-11T18:35:37;8.10;99.90
3300;DHT22;1662;49.310;8.134;2023-02-11T18:38:03;8.00;99.90
3300;DHT22;1662;49.310;8.134;2023-02-11T18:40:28;8.00;99.90
3300;DHT22;1662;49.310;8.134;2023-02-11T18:42:56;8.00;99.90
3300;DHT22;1662;49.310;8.134;2023-02-11T18:45:22;8.10;99.90
3300;DHT22;1662;49.310;8.134;2023-02-11T18:47:49;8.10;99.90
3300;DHT22;1662;49.310;8.134;2023-02-11T18:50:14;8.00;99.90
3300;DHT22;1662;49.310;8.134;2023-02-11T18:52:40;8.00;99.90
3300;DHT22;1662;49.310;8.134;2023-02-11T18:55:07;8.00;99.90